sensor_id;sensor_type;location;lat;lon;timestamp;P1;durP1;ratioP1;P2;durP2;ratioP2
1779;SDS011;10019;46.670;14.260;2023-02-04T00:01:07;12.10;;;8.17;;
1779;SDS011;10019;46.670;14.260;2023-02-04T00:03:38;13.73;;;8.70;;
1779;SDS011;10019;46.670;14.260;2023-02-04T00:06:10;11.00;;;7.60;;
1779;SDS011;10019;46.670;14.260;2023-02-04T00:08:42;8.70;;;5.30;;
1779;SDS011;10019;46.670;14.260;2023-02-04T00:11:15;4.43;;;3.30;;
1779;SDS011;10019;46.670;14.260;2023-02-04T00:13:47;4.40;;;3.00;;
1779;SDS011;10019;46.670;14.260;2023-02-04T00:16:19;4.87;;;3.07;;
1779;SDS011;10019;46.670;14.260;2023-02-04T00:18:50;2.70;;;2.50;;
1779;SDS011;10019;46.670;14.260;2023-02-04T00:21:22;3.90;;;3.23;;
1779;SDS011;10019;46.670;14.260;2023-02-04T00:23:54;3.40;;;2.80;;
1779;SDS011;10019;46.670;14.260;2023-02-04T00:26:27;4.47;;;2.83;;
1779;SDS011;10019;46.670;14.260;2023-02-04T00:28:59;3.30;;;2.27;;
1779;SDS011;10019;46.670;14.260;2023-02-04T00:31:30;3.60;;;2.60;;
1779;SDS011;10019;46.670;14.260;2023-02-04T00:34:03;3.40;;;2.40;;
1779;SDS011;10019;46.670;14.260;2023-02-04T00:36:34;2.13;;;1.93;;
1779;SDS011;10019;46.670;14.260;2023-02-04T00:39:06;3.70;;;2.17;;
1779;SDS011;10019;46.670;14.260;2023-02-04T00:41:39;3.03;;;2.00;;
1779;SDS011;10019;46.670;14.260;2023-02-04T00:44:11;2.67;;;2.10;;
1779;SDS011;10019;46.670;14.260;2023-02-04T00:46:44;2.40;;;2.00;;
1779;SDS011;10019;46.670;14.260;2023-02-04T00:49:17;3.10;;;2.80;;
1779;SDS011;10019;46.670;14.260;2023-02-04T00:51:49;2.93;;;2.40;;
1779;SDS011;10019;46.670;14.260;2023-02-04T00:54:21;2.90;;;2.20;;
1779;SDS011;10019;46.670;14.260;2023-02-04T00:56:54;3.80;;;2.23;;
1779;SDS011;10019;46.670;14.260;2023-02-04T00:59:26;2.73;;;2.07;;
1779;SDS011;10019;46.670;14.260;2023-02-04T01:01:57;2.53;;;1.57;;
1779;SDS011;10019;46.670;14.260;2023-02-04T01:04:29;2.00;;;1.80;;
1779;SDS011;10019;46.670;14.260;2023-02-04T01:07:01;1.80;;;1.50;;
1779;SDS011;10019;46.670;14.260;2023-02-04T01:09:32;3.83;;;1.90;;
1779;SDS011;10019;46.670;14.260;2023-02-04T01:12:06;3.77;;;2.60;;
1779;SDS011;10019;46.670;14.260;2023-02-04T01:14:37;5.07;;;2.57;;
1779;SDS011;10019;46.670;14.260;2023-02-04T01:17:09;2.37;;;2.10;;
1779;SDS011;10019;46.670;14.260;2023-02-04T01:19:41;2.80;;;2.20;;
1779;SDS011;10019;46.670;14.260;2023-02-04T01:22:12;3.40;;;1.70;;
1779;SDS011;10019;46.670;14.260;2023-02-04T01:24:44;1.80;;;1.53;;
1779;SDS011;10019;46.670;14.260;2023-02-04T01:27:17;1.80;;;1.60;;
1779;SDS011;10019;46.670;14.260;2023-02-04T01:29:49;2.60;;;1.90;;
1779;SDS011;10019;46.670;14.260;2023-02-04T01:32:21;3.50;;;2.10;;
1779;SDS011;10019;46.670;14.260;2023-02-04T01:34:52;3.40;;;2.40;;
1779;SDS011;10019;46.670;14.260;2023-02-04T01:37:24;3.30;;;2.77;;
1779;SDS011;10019;46.670;14.260;2023-02-04T01:39:56;2.90;;;2.57;;
1779;SDS011;10019;46.670;14.260;2023-02-04T01:42:29;4.63;;;3.27;;
1779;SDS011;10019;46.670;14.260;2023-02-04T01:45:01;2.87;;;2.33;;
1779;SDS011;10019;46.670;14.260;2023-02-04T01:47:35;3.20;;;2.90;;
1779;SDS011;10019;46.670;14.260;2023-02-04T01:50:09;3.77;;;3.37;;
1779;SDS011;10019;46.670;14.260;2023-02-04T01:52:42;6.60;;;3.63;;
1779;SDS011;10019;46.670;14.260;2023-02-04T01:55:15;3.20;;;2.47;;
1779;SDS011;10019;46.670;14.260;2023-02-04T01:57:49;5.57;;;3.17;;
1779;SDS011;10019;46.670;14.260;2023-02-04T02:00:23;4.27;;;3.03;;
1779;SDS011;10019;46.670;14.260;2023-02-04T02:02:56;2.83;;;2.47;;
1779;SDS011;10019;46.670;14.260;2023-02-04T02:05:29;4.53;;;2.77;;
1779;SDS011;10019;46.670;14.260;2023-02-04T02:08:04;3.23;;;2.70;;
1779;SDS011;10019;46.670;14.260;2023-02-04T02:10:36;2.70;;;2.37;;
1779;SDS011;10019;46.670;14.260;2023-02-04T02:13:12;4.60;;;3.87;;
1779;SDS011;10019;46.670;14.260;2023-02-04T02:15:46;5.47;;;4.20;;
1779;SDS011;10019;46.670;14.260;2023-02-04T02:18:18;4.80;;;3.70;;
1779;SDS011;10019;46.670;14.260;2023-02-04T02:20:49;3.73;;;3.00;;
1779;SDS011;10019;46.670;14.260;2023-02-04T02:23:22;3.70;;;2.93;;
1779;SDS011;10019;46.670;14.260;2023-02-04T02:25:58;2.97;;;2.67;;
1779;SDS011;10019;46.670;14.260;2023-02-04T02:28:30;3.90;;;2.90;;
1779;SDS011;10019;46.670;14.260;2023-02-04T02:31:02;3.70;;;2.30;;
1779;SDS011;10019;46.670;14.260;2023-02-04T02:33:34;4.17;;;2.03;;
1779;SDS011;10019;46.670;14.260;2023-02-04T02:36:06;2.50;;;2.30;;
1779;SDS011;10019;46.670;14.260;2023-02-04T02:38:38;2.60;;;1.90;;
1779;SDS011;10019;46.670;14.260;2023-02-04T02:41:11;2.97;;;2.33;;
1779;SDS011;10019;46.670;14.260;2023-02-04T02:43:43;3.47;;;2.17;;
1779;SDS011;10019;46.670;14.260;2023-02-04T02:46:15;2.70;;;2.20;;
1779;SDS011;10019;46.670;14.260;2023-02-04T02:48:47;3.00;;;1.97;;
1779;SDS011;10019;46.670;14.260;2023-02-04T02:51:18;2.00;;;1.80;;
1779;SDS011;10019;46.670;14.260;2023-02-04T02:53:50;2.50;;;2.30;;
1779;SDS011;10019;46.670;14.260;2023-02-04T02:56:23;3.10;;;2.50;;
1779;SDS011;10019;46.670;14.260;2023-02-04T02:58:55;2.90;;;1.90;;
1779;SDS011;10019;46.670;14.260;2023-02-04T03:01:27;1.97;;;1.87;;
1779;SDS011;10019;46.670;14.260;2023-02-04T03:03:59;2.00;;;1.60;;
1779;SDS011;10019;46.670;14.260;2023-02-04T03:06:31;3.00;;;2.30;;
1779;SDS011;10019;46.670;14.260;2023-02-04T03:09:03;2.73;;;2.23;;
1779;SDS011;10019;46.670;14.260;2023-02-04T03:11:36;2.70;;;2.43;;
1779;SDS011;10019;46.670;14.260;2023-02-04T03:14:09;2.17;;;1.97;;
1779;SDS011;10019;46.670;14.260;2023-02-04T03:16:41;4.23;;;2.50;;
1779;SDS011;10019;46.670;14.260;2023-02-04T03:19:13;3.40;;;2.57;;
1779;SDS011;10019;46.670;14.260;2023-02-04T03:21:45;3.20;;;2.10;;
1779;SDS011;10019;46.670;14.260;2023-02-04T03:24:16;2.10;;;1.90;;
1779;SDS011;10019;46.670;14.260;2023-02-04T03:26:50;2.30;;;1.90;;
1779;SDS011;10019;46.670;14.260;2023-02-04T03:29:22;2.40;;;2.07;;
1779;SDS011;10019;46.670;14.260;2023-02-04T03:31:53;2.40;;;2.20;;
1779;SDS011;10019;46.670;14.260;2023-02-04T03:34:25;2.50;;;2.30;;
1779;SDS011;10019;46.670;14.260;2023-02-04T03:36:57;2.40;;;2.20;;
1779;SDS011;10019;46.670;14.260;2023-02-04T03:39:29;3.67;;;3.23;;
1779;SDS011;10019;46.670;14.260;2023-02-04T03:42:02;3.50;;;2.77;;
1779;SDS011;10019;46.670;14.260;2023-02-04T03:44:34;6.37;;;3.57;;
1779;SDS011;10019;46.670;14.260;2023-02-04T03:47:06;9.50;;;5.63;;
1779;SDS011;10019;46.670;14.260;2023-02-04T03:49:37;6.77;;;4.33;;
1779;SDS011;10019;46.670;14.260;2023-02-04T03:52:09;3.60;;;2.90;;
1779;SDS011;10019;46.670;14.260;2023-02-04T03:54:41;5.33;;;2.70;;
1779;SDS011;10019;46.670;14.260;2023-02-04T03:57:14;2.47;;;2.10;;
1779;SDS011;10019;46.670;14.260;2023-02-04T03:59:46;2.23;;;2.03;;
1779;SDS011;10019;46.670;14.260;2023-02-04T04:02:17;2.40;;;2.20;;
1779;SDS011;10019;46.670;14.260;2023-02-04T04:04:49;2.90;;;2.10;;
1779;SDS011;10019;46.670;14.260;2023-02-04T04:07:21;2.53;;;2.27;;
1779;SDS011;10019;46.670;14.260;2023-02-04T04:09:52;3.30;;;2.70;;
1779;SDS011;10019;46.670;14.260;2023-02-04T04:12:26;4.30;;;3.20;;
1779;SDS011;10019;46.670;14.260;2023-02-04T04:14:57;2.77;;;2.40;;
1779;SDS011;10019;46.670;14.260;2023-02-04T04:17:29;2.53;;;1.90;;
1779;SDS011;10019;46.670;14.260;2023-02-04T04:20:01;3.77;;;2.80;;
1779;SDS011;10019;46.670;14.260;2023-02-04T04:22:32;2.63;;;2.40;;
1779;SDS011;10019;46.670;14.260;2023-02-04T04:25:04;2.87;;;2.03;;
1779;SDS011;10019;46.670;14.260;2023-02-04T04:27:38;2.30;;;2.10;;
1779;SDS011;10019;46.670;14.260;2023-02-04T04:30:10;2.60;;;2.40;;
1779;SDS011;10019;46.670;14.260;2023-02-04T04:32:42;3.00;;;2.70;;
1779;SDS011;10019;46.670;14.260;2023-02-04T04:35:14;5.03;;;2.70;;
1779;SDS011;10019;46.670;14.260;2023-02-04T04:37:45;6.20;;;2.87;;
1779;SDS011;10019;46.670;14.260;2023-02-04T04:40:17;3.87;;;2.93;;
1779;SDS011;10019;46.670;14.260;2023-02-04T04:42:50;3.80;;;2.70;;
1779;SDS011;10019;46.670;14.260;2023-02-04T04:45:22;2.83;;;2.43;;
1779;SDS011;10019;46.670;14.260;2023-02-04T04:47:54;5.80;;;3.20;;
1779;SDS011;10019;46.670;14.260;2023-02-04T04:50:25;4.80;;;3.70;;
1779;SDS011;10019;46.670;14.260;2023-02-04T04:52:57;5.17;;;3.37;;
1779;SDS011;10019;46.670;14.260;2023-02-04T04:55:29;5.40;;;3.60;;
1779;SDS011;10019;46.670;14.260;2023-02-04T04:58:03;3.47;;;2.80;;
1779;SDS011;10019;46.670;14.260;2023-02-04T05:00:35;3.43;;;2.70;;
1779;SDS011;10019;46.670;14.260;2023-02-04T05:03:08;2.60;;;2.07;;
1779;SDS011;10019;46.670;14.260;2023-02-04T05:05:40;2.80;;;2.17;;
1779;SDS011;10019;46.670;14.260;2023-02-04T05:08:13;3.37;;;2.90;;
1779;SDS011;10019;46.670;14.260;2023-02-04T05:10:46;5.10;;;3.63;;
1779;SDS011;10019;46.670;14.260;2023-02-04T05:13:19;5.27;;;3.47;;
1779;SDS011;10019;46.670;14.260;2023-02-04T05:15:53;4.47;;;3.77;;
1779;SDS011;10019;46.670;14.260;2023-02-04T05:18:24;4.30;;;3.17;;
1779;SDS011;10019;46.670;14.260;2023-02-04T05:20:56;3.60;;;2.50;;
1779;SDS011;10019;46.670;14.260;2023-02-04T05:23:28;5.27;;;2.80;;
1779;SDS011;10019;46.670;14.260;2023-02-04T05:25:59;2.80;;;2.60;;
1779;SDS011;10019;46.670;14.260;2023-02-04T05:28:32;3.17;;;2.87;;
1779;SDS011;10019;46.670;14.260;2023-02-04T05:31:04;2.70;;;2.13;;
1779;SDS011;10019;46.670;14.260;2023-02-04T05:33:36;4.73;;;2.30;;
1779;SDS011;10019;46.670;14.260;2023-02-04T05:36:08;2.63;;;2.20;;
1779;SDS011;10019;46.670;14.260;2023-02-04T05:38:39;3.70;;;2.87;;
1779;SDS011;10019;46.670;14.260;2023-02-04T05:41:11;3.10;;;2.70;;
1779;SDS011;10019;46.670;14.260;2023-02-04T05:43:44;4.40;;;2.70;;
1779;SDS011;10019;46.670;14.260;2023-02-04T05:46:16;3.40;;;2.23;;
1779;SDS011;10019;46.670;14.260;2023-02-04T05:48:47;3.80;;;2.43;;
1779;SDS011;10019;46.670;14.260;2023-02-04T05:51:19;2.70;;;2.17;;
1779;SDS011;10019;46.670;14.260;2023-02-04T05:53:51;2.07;;;1.90;;
1779;SDS011;10019;46.670;14.260;2023-02-04T05:56:22;2.90;;;2.00;;
1779;SDS011;10019;46.670;14.260;2023-02-04T05:58:56;2.30;;;1.80;;
1779;SDS011;10019;46.670;14.260;2023-02-04T06:01:28;2.10;;;1.60;;
1779;SDS011;10019;46.670;14.260;2023-02-04T06:03:59;2.00;;;1.77;;
1779;SDS011;10019;46.670;14.260;2023-02-04T06:06:31;3.73;;;1.90;;
1779;SDS011;10019;46.670;14.260;2023-02-04T06:09:03;2.43;;;2.20;;
1779;SDS011;10019;46.670;14.260;2023-02-04T06:11:35;2.30;;;1.60;;
1779;SDS011;10019;46.670;14.260;2023-02-04T06:14:08;2.40;;;2.20;;
1779;SDS011;10019;46.670;14.260;2023-02-04T06:16:40;2.17;;;1.97;;
1779;SDS011;10019;46.670;14.260;2023-02-04T06:19:12;1.90;;;1.50;;
1779;SDS011;10019;46.670;14.260;2023-02-04T06:21:43;1.60;;;1.43;;
1779;SDS011;10019;46.670;14.260;2023-02-04T06:24:15;1.50;;;1.40;;
1779;SDS011;10019;46.670;14.260;2023-02-04T06:26:47;2.13;;;1.47;;
1779;SDS011;10019;46.670;14.260;2023-02-04T06:29:20;2.57;;;1.80;;
1779;SDS011;10019;46.670;14.260;2023-02-04T06:31:53;2.00;;;1.67;;
1779;SDS011;10019;46.670;14.260;2023-02-04T06:34:25;1.63;;;1.50;;
1779;SDS011;10019;46.670;14.260;2023-02-04T06:36:57;1.40;;;1.30;;
1779;SDS011;10019;46.670;14.260;2023-02-04T06:39:28;1.90;;;1.40;;
1779;SDS011;10019;46.670;14.260;2023-02-04T06:42:00;1.70;;;1.40;;
1779;SDS011;10019;46.670;14.260;2023-02-04T06:44:33;1.90;;;1.40;;
1779;SDS011;10019;46.670;14.260;2023-02-04T06:47:05;2.17;;;1.40;;
1779;SDS011;10019;46.670;14.260;2023-02-04T06:49:37;3.07;;;1.80;;
1779;SDS011;10019;46.670;14.260;2023-02-04T06:52:09;1.93;;;1.40;;
1779;SDS011;10019;46.670;14.260;2023-02-04T06:54:40;1.87;;;1.40;;
1779;SDS011;10019;46.670;14.260;2023-02-04T06:57:12;1.80;;;1.70;;
1779;SDS011;10019;46.670;14.260;2023-02-04T06:59:45;4.90;;;4.13;;
1779;SDS011;10019;46.670;14.260;2023-02-04T07:02:17;5.00;;;3.93;;
1779;SDS011;10019;46.670;14.260;2023-02-04T07:04:49;3.93;;;3.33;;
1779;SDS011;10019;46.670;14.260;2023-02-04T07:07:20;6.03;;;5.17;;
1779;SDS011;10019;46.670;14.260;2023-02-04T07:09:52;2.30;;;1.80;;
1779;SDS011;10019;46.670;14.260;2023-02-04T07:12:24;3.03;;;1.90;;
1779;SDS011;10019;46.670;14.260;2023-02-04T07:14:57;1.63;;;1.40;;
1779;SDS011;10019;46.670;14.260;2023-02-04T07:17:29;1.53;;;1.13;;
1779;SDS011;10019;46.670;14.260;2023-02-04T07:20:00;1.73;;;1.53;;
1779;SDS011;10019;46.670;14.260;2023-02-04T07:22:32;2.73;;;1.10;;
1779;SDS011;10019;46.670;14.260;2023-02-04T07:25:04;1.70;;;1.13;;
1779;SDS011;10019;46.670;14.260;2023-02-04T07:27:36;3.10;;;1.17;;
1779;SDS011;10019;46.670;14.260;2023-02-04T07:30:10;1.53;;;1.20;;
1779;SDS011;10019;46.670;14.260;2023-02-04T07:32:42;1.70;;;1.00;;
1779;SDS011;10019;46.670;14.260;2023-02-04T07:35:14;1.60;;;1.10;;
1779;SDS011;10019;46.670;14.260;2023-02-04T07:37:46;1.50;;;1.10;;
1779;SDS011;10019;46.670;14.260;2023-02-04T07:40:18;2.03;;;1.27;;
1779;SDS011;10019;46.670;14.260;2023-02-04T07:42:50;2.27;;;1.10;;
1779;SDS011;10019;46.670;14.260;2023-02-04T07:45:23;1.77;;;1.10;;
1779;SDS011;10019;46.670;14.260;2023-02-04T07:47:55;2.00;;;1.30;;
1779;SDS011;10019;46.670;14.260;2023-02-04T07:50:27;1.50;;;1.00;;
1779;SDS011;10019;46.670;14.260;2023-02-04T07:52:59;1.30;;;1.00;;
1779;SDS011;10019;46.670;14.260;2023-02-04T07:55:30;1.50;;;1.00;;
1779;SDS011;10019;46.670;14.260;2023-02-04T07:58:02;1.50;;;1.10;;
1779;SDS011;10019;46.670;14.260;2023-02-04T08:00:35;1.40;;;0.90;;
1779;SDS011;10019;46.670;14.260;2023-02-04T08:03:07;1.50;;;1.00;;
1779;SDS011;10019;46.670;14.260;2023-02-04T08:05:39;1.40;;;1.00;;
1779;SDS011;10019;46.670;14.260;2023-02-04T08:08:10;1.60;;;1.10;;
1779;SDS011;10019;46.670;14.260;2023-02-04T08:10:42;1.30;;;0.90;;
1779;SDS011;10019;46.670;14.260;2023-02-04T08:13:14;1.43;;;1.07;;
1779;SDS011;10019;46.670;14.260;2023-02-04T08:15:47;3.00;;;1.00;;
1779;SDS011;10019;46.670;14.260;2023-02-04T08:18:18;3.97;;;1.00;;
1779;SDS011;10019;46.670;14.260;2023-02-04T09:28:47;3.83;;;1.10;;
1779;SDS011;10019;46.670;14.260;2023-02-04T09:31:19;3.07;;;1.17;;
1779;SDS011;10019;46.670;14.260;2023-02-04T09:33:50;1.60;;;1.00;;
1779;SDS011;10019;46.670;14.260;2023-02-04T09:36:22;4.70;;;1.00;;
1779;SDS011;10019;46.670;14.260;2023-02-04T09:38:57;1.60;;;1.10;;
1779;SDS011;10019;46.670;14.260;2023-02-04T09:41:29;1.73;;;1.00;;
1779;SDS011;10019;46.670;14.260;2023-02-04T09:44:02;1.67;;;1.00;;
1779;SDS011;10019;46.670;14.260;2023-02-04T09:46:34;1.67;;;1.00;;
1779;SDS011;10019;46.670;14.260;2023-02-04T09:49:07;1.40;;;0.90;;
1779;SDS011;10019;46.670;14.260;2023-02-04T09:51:40;3.90;;;1.20;;
1779;SDS011;10019;46.670;14.260;2023-02-04T09:54:13;1.40;;;1.00;;
1779;SDS011;10019;46.670;14.260;2023-02-04T09:56:46;1.40;;;1.00;;
1779;SDS011;10019;46.670;14.260;2023-02-04T09:59:20;1.43;;;0.93;;
1779;SDS011;10019;46.670;14.260;2023-02-04T10:01:53;1.40;;;1.00;;
1779;SDS011;10019;46.670;14.260;2023-02-04T10:04:26;1.80;;;0.97;;
1779;SDS011;10019;46.670;14.260;2023-02-04T10:06:58;1.80;;;1.10;;
1779;SDS011;10019;46.670;14.260;2023-02-04T10:09:30;1.37;;;0.93;;
1779;SDS011;10019;46.670;14.260;2023-02-04T10:12:01;1.40;;;1.00;;
1779;SDS011;10019;46.670;14.260;2023-02-04T10:14:35;1.83;;;1.00;;
1779;SDS011;10019;46.670;14.260;2023-02-04T10:17:06;1.60;;;1.00;;
1779;SDS011;10019;46.670;14.260;2023-02-04T10:19:38;1.80;;;1.00;;
1779;SDS011;10019;46.670;14.260;2023-02-04T10:22:15;1.40;;;0.90;;
1779;SDS011;10019;46.670;14.260;2023-02-04T10:24:47;2.20;;;1.47;;
1779;SDS011;10019;46.670;14.260;2023-02-04T10:27:19;1.50;;;1.10;;
1779;SDS011;10019;46.670;14.260;2023-02-04T10:29:55;1.60;;;1.00;;
1779;SDS011;10019;46.670;14.260;2023-02-04T10:32:28;1.60;;;1.40;;
1779;SDS011;10019;46.670;14.260;2023-02-04T10:35:02;1.50;;;0.90;;
1779;SDS011;10019;46.670;14.260;2023-02-04T10:37:33;1.60;;;1.03;;
1779;SDS011;10019;46.670;14.260;2023-02-04T10:40:05;2.37;;;1.10;;
1779;SDS011;10019;46.670;14.260;2023-02-04T10:42:55;1.40;;;0.90;;
1779;SDS011;10019;46.670;14.260;2023-02-04T10:45:29;1.40;;;0.90;;
1779;SDS011;10019;46.670;14.260;2023-02-04T10:48:01;1.40;;;1.00;;
1779;SDS011;10019;46.670;14.260;2023-02-04T10:50:32;1.30;;;0.80;;
1779;SDS011;10019;46.670;14.260;2023-02-04T10:53:04;1.30;;;0.90;;
1779;SDS011;10019;46.670;14.260;2023-02-04T10:55:53;1.33;;;0.90;;
1779;SDS011;10019;46.670;14.260;2023-02-04T10:58:26;13.10;;;1.30;;
1779;SDS011;10019;46.670;14.260;2023-02-04T11:01:00;2.27;;;1.10;;
1779;SDS011;10019;46.670;14.260;2023-02-04T11:03:32;1.40;;;1.00;;
1779;SDS011;10019;46.670;14.260;2023-02-04T11:06:04;1.60;;;1.00;;
1779;SDS011;10019;46.670;14.260;2023-02-04T11:08:40;1.33;;;0.90;;
1779;SDS011;10019;46.670;14.260;2023-02-04T11:11:13;1.40;;;0.90;;
1779;SDS011;10019;46.670;14.260;2023-02-04T11:13:56;1.33;;;0.90;;
1779;SDS011;10019;46.670;14.260;2023-02-04T11:16:31;1.40;;;1.00;;
1779;SDS011;10019;46.670;14.260;2023-02-04T11:19:05;1.50;;;1.00;;
1779;SDS011;10019;46.670;14.260;2023-02-04T11:21:41;4.80;;;0.90;;
1779;SDS011;10019;46.670;14.260;2023-02-04T11:24:20;2.10;;;1.00;;
1779;SDS011;10019;46.670;14.260;2023-02-04T11:27:03;1.40;;;0.97;;
1779;SDS011;10019;46.670;14.260;2023-02-04T11:29:36;1.70;;;1.00;;
1779;SDS011;10019;46.670;14.260;2023-02-04T11:32:25;1.40;;;0.90;;
1779;SDS011;10019;46.670;14.260;2023-02-04T11:37:56;1.40;;;0.90;;
1779;SDS011;10019;46.670;14.260;2023-02-04T11:40:29;1.40;;;1.00;;
1779;SDS011;10019;46.670;14.260;2023-02-04T11:43:02;1.33;;;0.90;;
1779;SDS011;10019;46.670;14.260;2023-02-04T11:45:40;1.40;;;0.90;;
1779;SDS011;10019;46.670;14.260;2023-02-04T11:48:14;1.53;;;1.00;;
1779;SDS011;10019;46.670;14.260;2023-02-04T11:50:53;1.50;;;1.00;;
1779;SDS011;10019;46.670;14.260;2023-02-04T11:53:27;1.70;;;1.07;;
1779;SDS011;10019;46.670;14.260;2023-02-04T11:56:00;1.40;;;1.00;;
1779;SDS011;10019;46.670;14.260;2023-02-04T11:58:31;1.67;;;1.00;;
1779;SDS011;10019;46.670;14.260;2023-02-04T12:01:03;1.40;;;0.90;;
1779;SDS011;10019;46.670;14.260;2023-02-04T12:03:44;1.60;;;1.07;;
1779;SDS011;10019;46.670;14.260;2023-02-04T12:06:20;1.40;;;1.13;;
1779;SDS011;10019;46.670;14.260;2023-02-04T12:08:52;1.47;;;1.10;;
1779;SDS011;10019;46.670;14.260;2023-02-04T12:11:35;1.40;;;0.90;;
1779;SDS011;10019;46.670;14.260;2023-02-04T12:14:07;1.40;;;1.00;;
1779;SDS011;10019;46.670;14.260;2023-02-04T12:16:43;4.17;;;1.20;;
1779;SDS011;10019;46.670;14.260;2023-02-04T12:19:16;2.23;;;1.10;;
1779;SDS011;10019;46.670;14.260;2023-02-04T12:21:48;1.50;;;1.07;;
1779;SDS011;10019;46.670;14.260;2023-02-04T12:24:20;1.63;;;1.23;;
1779;SDS011;10019;46.670;14.260;2023-02-04T12:26:51;1.57;;;1.20;;
1779;SDS011;10019;46.670;14.260;2023-02-04T12:29:23;1.70;;;1.20;;
1779;SDS011;10019;46.670;14.260;2023-02-04T12:31:55;1.80;;;1.30;;
1779;SDS011;10019;46.670;14.260;2023-02-04T12:34:28;2.80;;;2.27;;
1779;SDS011;10019;46.670;14.260;2023-02-04T12:37:00;2.40;;;1.90;;
1779;SDS011;10019;46.670;14.260;2023-02-04T12:39:31;1.87;;;1.40;;
1779;SDS011;10019;46.670;14.260;2023-02-04T12:42:03;1.50;;;1.20;;
1779;SDS011;10019;46.670;14.260;2023-02-04T12:44:35;1.60;;;1.00;;
1779;SDS011;10019;46.670;14.260;2023-02-04T12:47:06;1.70;;;1.20;;
1779;SDS011;10019;46.670;14.260;2023-02-04T12:49:39;1.40;;;1.00;;
1779;SDS011;10019;46.670;14.260;2023-02-04T12:52:11;1.87;;;1.10;;
1779;SDS011;10019;46.670;14.260;2023-02-04T12:54:43;2.13;;;1.37;;
1779;SDS011;10019;46.670;14.260;2023-02-04T12:57:15;1.30;;;1.00;;
1779;SDS011;10019;46.670;14.260;2023-02-04T12:59:48;1.70;;;1.27;;
1779;SDS011;10019;46.670;14.260;2023-02-04T13:02:20;2.40;;;1.27;;
1779;SDS011;10019;46.670;14.260;2023-02-04T13:04:53;1.60;;;1.10;;
1779;SDS011;10019;46.670;14.260;2023-02-04T13:07:25;1.40;;;1.20;;
1779;SDS011;10019;46.670;14.260;2023-02-04T13:09:56;1.60;;;1.20;;
1779;SDS011;10019;46.670;14.260;2023-02-04T13:12:28;1.47;;;1.20;;
1779;SDS011;10019;46.670;14.260;2023-02-04T13:15:00;1.50;;;1.10;;
1779;SDS011;10019;46.670;14.260;2023-02-04T13:17:32;1.60;;;1.20;;
1779;SDS011;10019;46.670;14.260;2023-02-04T13:20:05;1.60;;;1.20;;
1779;SDS011;10019;46.670;14.260;2023-02-04T13:22:38;3.60;;;1.10;;
1779;SDS011;10019;46.670;14.260;2023-02-04T13:25:09;1.40;;;1.10;;
1779;SDS011;10019;46.670;14.260;2023-02-04T13:27:41;1.47;;;1.20;;
1779;SDS011;10019;46.670;14.260;2023-02-04T13:30:13;1.37;;;1.00;;
1779;SDS011;10019;46.670;14.260;2023-02-04T13:32:45;1.40;;;1.00;;
1779;SDS011;10019;46.670;14.260;2023-02-04T13:35:18;4.47;;;1.00;;
1779;SDS011;10019;46.670;14.260;2023-02-04T13:37:50;1.40;;;1.00;;
1779;SDS011;10019;46.670;14.260;2023-02-04T13:40:22;1.80;;;1.03;;
1779;SDS011;10019;46.670;14.260;2023-02-04T13:42:53;1.80;;;1.10;;
1779;SDS011;10019;46.670;14.260;2023-02-04T13:45:25;1.50;;;1.00;;
1779;SDS011;10019;46.670;14.260;2023-02-04T13:47:57;1.50;;;1.00;;
1779;SDS011;10019;46.670;14.260;2023-02-04T13:50:30;1.50;;;1.00;;
1779;SDS011;10019;46.670;14.260;2023-02-04T13:53:01;1.33;;;1.00;;
1779;SDS011;10019;46.670;14.260;2023-02-04T13:55:33;2.40;;;1.20;;
1779;SDS011;10019;46.670;14.260;2023-02-04T13:58:04;1.40;;;1.13;;
1779;SDS011;10019;46.670;14.260;2023-02-04T14:00:36;2.33;;;1.10;;
1779;SDS011;10019;46.670;14.260;2023-02-04T14:03:08;1.40;;;1.07;;
1779;SDS011;10019;46.670;14.260;2023-02-04T14:05:41;1.40;;;1.00;;
1779;SDS011;10019;46.670;14.260;2023-02-04T14:08:13;1.57;;;1.00;;
1779;SDS011;10019;46.670;14.260;2023-02-04T14:10:44;1.60;;;1.00;;
1779;SDS011;10019;46.670;14.260;2023-02-04T14:13:16;1.50;;;1.00;;
1779;SDS011;10019;46.670;14.260;2023-02-04T14:15:48;2.00;;;1.40;;
1779;SDS011;10019;46.670;14.260;2023-02-04T14:18:20;1.40;;;1.03;;
1779;SDS011;10019;46.670;14.260;2023-02-04T14:20:53;1.50;;;1.10;;
1779;SDS011;10019;46.670;14.260;2023-02-04T14:23:24;2.90;;;1.20;;
1779;SDS011;10019;46.670;14.260;2023-02-04T14:25:56;2.10;;;1.20;;
1779;SDS011;10019;46.670;14.260;2023-02-04T14:28:28;1.63;;;1.30;;
1779;SDS011;10019;46.670;14.260;2023-02-04T14:30:59;1.50;;;1.13;;
1779;SDS011;10019;46.670;14.260;2023-02-04T14:33:31;1.50;;;1.20;;
1779;SDS011;10019;46.670;14.260;2023-02-04T14:36:05;1.53;;;1.10;;
1779;SDS011;10019;46.670;14.260;2023-02-04T14:38:37;1.40;;;1.00;;
1779;SDS011;10019;46.670;14.260;2023-02-04T14:41:08;1.77;;;1.20;;
1779;SDS011;10019;46.670;14.260;2023-02-04T14:43:45;1.70;;;1.17;;
1779;SDS011;10019;46.670;14.260;2023-02-04T14:46:16;1.90;;;1.80;;
1779;SDS011;10019;46.670;14.260;2023-02-04T14:48:48;1.57;;;1.10;;
1779;SDS011;10019;46.670;14.260;2023-02-04T14:51:22;1.50;;;1.20;;
1779;SDS011;10019;46.670;14.260;2023-02-04T14:53:54;1.90;;;1.50;;
1779;SDS011;10019;46.670;14.260;2023-02-04T14:56:25;1.50;;;1.10;;
1779;SDS011;10019;46.670;14.260;2023-02-04T14:58:57;1.90;;;1.50;;
1779;SDS011;10019;46.670;14.260;2023-02-04T15:01:29;2.90;;;1.30;;
1779;SDS011;10019;46.670;14.260;2023-02-04T15:04:01;2.37;;;1.80;;
1779;SDS011;10019;46.670;14.260;2023-02-04T15:06:34;1.97;;;1.40;;
1779;SDS011;10019;46.670;14.260;2023-02-04T15:09:05;1.50;;;1.10;;
1779;SDS011;10019;46.670;14.260;2023-02-04T15:11:37;2.00;;;1.63;;
1779;SDS011;10019;46.670;14.260;2023-02-04T15:14:09;1.47;;;1.20;;
1779;SDS011;10019;46.670;14.260;2023-02-04T15:16:40;2.23;;;1.60;;
1779;SDS011;10019;46.670;14.260;2023-02-04T15:19:17;1.80;;;1.20;;
1779;SDS011;10019;46.670;14.260;2023-02-04T15:21:50;1.50;;;1.30;;
1779;SDS011;10019;46.670;14.260;2023-02-04T15:24:23;2.73;;;1.50;;
1779;SDS011;10019;46.670;14.260;2023-02-04T15:26:56;1.67;;;1.33;;
1779;SDS011;10019;46.670;14.260;2023-02-04T15:29:27;2.93;;;1.30;;
1779;SDS011;10019;46.670;14.260;2023-02-04T15:31:59;1.80;;;1.30;;
1779;SDS011;10019;46.670;14.260;2023-02-04T15:34:31;2.10;;;1.60;;
1779;SDS011;10019;46.670;14.260;2023-02-04T15:37:04;1.73;;;1.27;;
1779;SDS011;10019;46.670;14.260;2023-02-04T15:39:36;2.17;;;1.30;;
1779;SDS011;10019;46.670;14.260;2023-02-04T15:42:07;1.50;;;1.10;;
1779;SDS011;10019;46.670;14.260;2023-02-04T15:44:39;1.60;;;1.20;;
1779;SDS011;10019;46.670;14.260;2023-02-04T15:47:11;1.50;;;1.20;;
1779;SDS011;10019;46.670;14.260;2023-02-04T15:49:43;4.30;;;1.17;;
1779;SDS011;10019;46.670;14.260;2023-02-04T15:52:16;1.73;;;1.20;;
1779;SDS011;10019;46.670;14.260;2023-02-04T15:54:48;1.90;;;1.40;;
1779;SDS011;10019;46.670;14.260;2023-02-04T15:57:19;3.97;;;1.20;;
1779;SDS011;10019;46.670;14.260;2023-02-04T15:59:51;1.83;;;1.20;;
1779;SDS011;10019;46.670;14.260;2023-02-04T16:02:23;1.70;;;1.23;;
1779;SDS011;10019;46.670;14.260;2023-02-04T16:04:54;2.30;;;1.40;;
1779;SDS011;10019;46.670;14.260;2023-02-04T16:07:28;4.23;;;1.40;;
1779;SDS011;10019;46.670;14.260;2023-02-04T16:10:00;2.63;;;2.10;;
1779;SDS011;10019;46.670;14.260;2023-02-04T16:12:32;2.03;;;1.60;;
1779;SDS011;10019;46.670;14.260;2023-02-04T16:15:04;5.73;;;1.77;;
1779;SDS011;10019;46.670;14.260;2023-02-04T16:17:36;1.80;;;1.27;;
1779;SDS011;10019;46.670;14.260;2023-02-04T16:20:08;1.90;;;1.40;;
1779;SDS011;10019;46.670;14.260;2023-02-04T16:22:44;1.60;;;1.40;;
1779;SDS011;10019;46.670;14.260;2023-02-04T16:25:15;1.73;;;1.40;;
1779;SDS011;10019;46.670;14.260;2023-02-04T16:27:47;1.60;;;1.47;;
1779;SDS011;10019;46.670;14.260;2023-02-04T16:30:19;1.90;;;1.40;;